DW5321 Paradera AW current weather conditions

sailwx.info

Wind from 101 at 9 knots gusting 16

Air temperature 30.0° C
Dewpoint 24.1° C

Last reported at 2014-Dec-22 16:37 UTC.
Time now 2014-Dec-22 17:47 UTC

Location: N 12°33' W 070°00'.
View on Google Maps.

See reports from other nearby stations

  
Tides and Currents Weather Stations Pressure Air Temp Water Temp Dewpoint Dewpoint Depression Visibility Wind Speed Wind Dir Waves Ship Positions
date/time (UTC)wind fromknots sea level pressurealtimeterstation pressurevisibilityair tempwater tempwave heightnotes
2014-Dec-22 16:37 101 9 gusting 16 30.0
2014-Dec-22 16:22 066 10 gusting 18 29.4
2014-Dec-22 16:07 129 11 gusting 16 29.4
2014-Dec-22 15:52 083 11 gusting 19 29.4
2014-Dec-22 15:37 096 8 gusting 19 29.4
2014-Dec-22 15:22 107 12 gusting 18 29.4
2014-Dec-22 15:07 129 12 gusting 20 29.4
2014-Dec-22 14:52 111 13 gusting 21 29.4
2014-Dec-22 14:37 089 9 gusting 19 29.4
2014-Dec-22 14:22 100 14 gusting 24 28.9
2014-Dec-22 14:07 090 11 28.3
2014-Dec-22 13:52 105 13 gusting 19 28.3
2014-Dec-22 13:37 098 9 gusting 19 28.9
2014-Dec-22 13:22 120 9 gusting 17 28.9
2014-Dec-22 13:07 097 6 gusting 16 28.3
2014-Dec-22 12:52 064 7 gusting 19 28.3
2014-Dec-22 12:37 099 6 gusting 15 27.8
2014-Dec-22 12:22 063 6 gusting 16 27.8
2014-Dec-22 12:07 111 5 gusting 13 27.2
2014-Dec-22 11:52 121 5 gusting 13 27.2
2014-Dec-22 11:37 114 6 gusting 15 27.2
2014-Dec-22 11:22 101 6 gusting 13 26.7
2014-Dec-22 11:07 105 8 gusting 14 26.7
2014-Dec-22 10:52 097 6 gusting 13 26.7
2014-Dec-22 10:37 115 8 gusting 12 26.7
2014-Dec-22 10:22 131 8 gusting 15 26.7
2014-Dec-22 10:07 090 6 gusting 15 26.7
2014-Dec-22 09:52 070 6 gusting 12 26.7
2014-Dec-22 09:37 086 9 gusting 14 26.7
2014-Dec-22 09:22 101 6 gusting 15 26.7
2014-Dec-22 09:06 109 6 gusting 15 26.7
2014-Dec-22 08:51 114 6 gusting 12 26.7
2014-Dec-22 08:36 117 10 gusting 15 26.7
2014-Dec-22 08:21 091 5 gusting 13 26.7
2014-Dec-22 08:06 110 5 gusting 14 26.7
2014-Dec-22 07:51 067 5 gusting 13 26.7
2014-Dec-22 07:36 114 6 gusting 12 26.7
2014-Dec-22 07:21 094 7 gusting 14 26.7
2014-Dec-22 07:06 132 10 gusting 16 26.7
2014-Dec-22 06:51 097 7 gusting 13 26.7
2014-Dec-22 06:36 092 8 gusting 15 26.7
2014-Dec-22 06:21 082 7 gusting 13 26.7
2014-Dec-22 06:06 070 9 gusting 15 26.7
2014-Dec-22 05:51 091 8 gusting 14 26.7
2014-Dec-22 05:36 138 6 gusting 13 27.2
2014-Dec-22 05:21 105 7 gusting 14 27.2
2014-Dec-22 05:06 060 5 gusting 12 27.2
2014-Dec-22 04:51 133 6 gusting 13 27.2
2014-Dec-22 04:36 105 7 gusting 13 27.2
2014-Dec-22 04:21 107 8 gusting 13 27.2
2014-Dec-22 04:06 100 9 gusting 18 27.2
2014-Dec-22 03:51 089 7 gusting 13 27.2
2014-Dec-22 03:36 089 8 gusting 16 27.2
2014-Dec-22 03:21 099 6 gusting 12 27.2
2014-Dec-22 03:06 094 6 gusting 14 27.2
2014-Dec-22 02:51 057 5 gusting 12 27.2
2014-Dec-22 02:36 101 5 gusting 10 27.2
2014-Dec-22 02:21 109 6 gusting 12 27.2
2014-Dec-22 02:06 125 6 gusting 12 27.2
2014-Dec-22 01:51 075 6 gusting 12 27.2
2014-Dec-22 01:36 059 7 gusting 13 27.2
2014-Dec-22 01:21 071 6 gusting 12 27.2
2014-Dec-22 01:06 105 5 gusting 11 27.2
2014-Dec-22 00:51 065 6 gusting 12 27.2
2014-Dec-22 00:36 132 5 gusting 11 27.2
2014-Dec-22 00:21 049 6 gusting 9 27.2
2014-Dec-22 00:06 105 6 gusting 9 27.2
2014-Dec-21 23:51 101 7 gusting 12 27.2
2014-Dec-21 23:36 094 6 gusting 13 27.2
2014-Dec-21 23:21 071 3 gusting 10 27.2
2014-Dec-21 23:06 079 5 gusting 12 27.2
2014-Dec-21 22:51 114 5 gusting 9 27.2
2014-Dec-21 22:36 038 6 gusting 11 27.8
2014-Dec-21 22:21 070 6 gusting 13 27.8
2014-Dec-21 22:06 089 7 gusting 13 27.8
2014-Dec-21 21:51 110 7 gusting 13 27.8
2014-Dec-21 21:36 101 7 gusting 14 28.3
2014-Dec-21 21:21 095 7 gusting 13 28.3
2014-Dec-21 21:06 058 6 gusting 12 28.9
2014-Dec-21 20:51 049 7 gusting 15 28.9
2014-Dec-21 20:36 094 8 gusting 16 28.9
2014-Dec-21 20:21 139 9 gusting 15 28.9
2014-Dec-21 20:06 064 8 gusting 14 28.9
2014-Dec-21 19:51 134 8 gusting 15 28.9
2014-Dec-21 19:36 076 10 gusting 15 29.4
2014-Dec-21 19:21 074 8 gusting 15 29.4
2014-Dec-21 19:06 122 9 gusting 14 29.4
2014-Dec-21 18:51 105 8 gusting 15 30.0
2014-Dec-21 18:36 070 7 gusting 16 29.4
2014-Dec-21 18:21 064 10 gusting 17 30.0
2014-Dec-21 18:06 105 8 gusting 16 29.4
2014-Dec-21 17:51 075 9 gusting 15 30.0
2014-Dec-21 17:36 082 10 gusting 21 28.9
2014-Dec-21 17:21 121 5 gusting 15 29.4
2014-Dec-21 17:06 053 10 gusting 17 28.9
2014-Dec-21 16:51 056 8 gusting 16 29.4
2014-Dec-21 16:36 049 7 gusting 16 29.4
2014-Dec-21 16:21 123 10 gusting 19 28.9
2014-Dec-21 16:06 044 8 gusting 14 28.3
2014-Dec-21 15:51 107 13 gusting 17 28.3
2014-Dec-21 15:36 117 12 gusting 17 28.9
2014-Dec-21 15:21 101 11 gusting 19 28.9
2014-Dec-21 15:05 065 11 gusting 19 29.4
2014-Dec-21 14:50 103 7 gusting 17 28.9
2014-Dec-21 14:35 106 9 gusting 14 28.9
2014-Dec-21 14:20 107 11 gusting 15 28.9
2014-Dec-21 14:05 120 8 gusting 15 28.9
2014-Dec-21 13:50 079 6 gusting 13 28.3
2014-Dec-21 13:35 106 6 gusting 12 27.8
2014-Dec-21 13:21 108 6 gusting 19 27.8
2014-Dec-21 13:05 117 6 gusting 13 27.8
2014-Dec-21 12:50 073 7 gusting 12 27.8
2014-Dec-21 12:35 098 5 gusting 12 27.8
2014-Dec-21 12:20 101 6 gusting 13 27.8
2014-Dec-21 12:05 105 6 gusting 13 27.8
2014-Dec-21 11:50 098 8 gusting 12 27.2
2014-Dec-21 11:35 101 6 gusting 10 27.2
2014-Dec-21 11:21 090 4 gusting 9 26.7
2014-Dec-21 11:05 082 4 gusting 10 26.7
2014-Dec-21 10:50 067 5 gusting 14 26.7
2014-Dec-21 10:35 082 6 gusting 11 26.7
2014-Dec-21 10:20 042 5 gusting 11 26.7
2014-Dec-21 10:05 097 6 gusting 13 26.7
2014-Dec-21 09:50 112 5 gusting 13 26.7
2014-Dec-21 09:35 103 6 gusting 13 26.7
2014-Dec-21 09:20 079 7 gusting 12 26.7
2014-Dec-21 09:05 074 8 gusting 13 26.7
2014-Dec-21 08:50 082 5 gusting 8 26.7
2014-Dec-21 08:35 075 6 gusting 12 26.7
2014-Dec-21 08:20 114 7 gusting 13 26.7
2014-Dec-21 08:05 057 6 gusting 11 26.7
2014-Dec-21 07:50 090 6 gusting 9 26.7
2014-Dec-21 07:35 084 6 gusting 13 26.7
2014-Dec-21 07:20 084 7 gusting 12 26.7
2014-Dec-21 07:05 120 6 gusting 13 26.7
2014-Dec-21 06:50 117 6 gusting 12 26.7
2014-Dec-21 06:35 064 6 gusting 13 26.7
2014-Dec-21 06:19 087 6 gusting 11 26.7
2014-Dec-21 06:04 060 6 gusting 9 26.7
2014-Dec-21 05:49 084 4 gusting 10 27.2
2014-Dec-21 05:34 073 6 gusting 13 26.7
2014-Dec-21 05:19 094 5 gusting 10 27.2
2014-Dec-21 05:04 110 5 gusting 10 27.2
2014-Dec-21 04:49 109 5 gusting 9 27.2
2014-Dec-21 04:34 064 5 gusting 9 27.2
2014-Dec-21 04:19 058 6 gusting 12 27.2
2014-Dec-21 04:04 135 6 gusting 11 27.2
2014-Dec-21 03:49 078 4 gusting 7 27.2
2014-Dec-21 03:34 096 6 gusting 11 27.2
2014-Dec-21 03:19 077 4 gusting 9 27.2
2014-Dec-21 03:04 082 4 gusting 12 27.2
2014-Dec-21 02:49 077 6 gusting 12 27.2
2014-Dec-21 02:34 084 5 gusting 12 27.2
2014-Dec-21 02:19 077 7 gusting 13 27.2
2014-Dec-21 02:04 094 7 gusting 13 27.2
2014-Dec-21 01:49 095 5 gusting 10 27.2
2014-Dec-21 01:34 078 6 gusting 12 27.2
2014-Dec-21 01:19 091 6 gusting 12 27.2
2014-Dec-21 01:04 115 8 gusting 13 27.2
2014-Dec-21 00:49 072 6 gusting 13 27.2
2014-Dec-21 00:34 099 4 gusting 13 27.2
2014-Dec-21 00:19 089 8 gusting 13 27.2
2014-Dec-21 00:04 077 6 gusting 12 27.2
2014-Dec-20 23:49 117 5 gusting 13 27.2
2014-Dec-20 23:34 129 6 gusting 13 27.2
2014-Dec-20 23:19 134 6 gusting 13 27.2
2014-Dec-20 23:04 053 6 gusting 12 27.2
2014-Dec-20 22:49 064 7 gusting 13 27.2
2014-Dec-20 22:34 105 8 gusting 13 27.2
2014-Dec-20 22:19 091 7 gusting 12 27.8
2014-Dec-20 22:04 077 7 gusting 15 27.8
2014-Dec-20 21:49 088 6 gusting 15 27.8
2014-Dec-20 21:34 094 8 gusting 15 27.8
2014-Dec-20 21:19 053 9 gusting 18 27.8
2014-Dec-20 21:04 101 9 gusting 15 28.3
2014-Dec-20 20:49 089 12 gusting 15 28.3
2014-Dec-20 20:34 072 9 gusting 16 28.3
2014-Dec-20 20:19 127 9 gusting 16 28.3
2014-Dec-20 20:04 079 9 gusting 16 28.3
2014-Dec-20 19:49 107 12 gusting 15 28.9
2014-Dec-20 19:34 089 8 gusting 14 28.9
2014-Dec-20 19:19 060 7 gusting 13 29.4
2014-Dec-20 19:04 094 9 gusting 13 28.9
2014-Dec-20 18:49 098 8 gusting 14 29.4
2014-Dec-20 18:34 086 9 gusting 16 30.0
2014-Dec-20 18:19 061 8 gusting 14 29.4
2014-Dec-20 18:04 056 7 gusting 14 29.4
2014-Dec-20 17:49 082 8 gusting 17 29.4
2014-Dec-20 17:34 064 9 gusting 13 29.4
2014-Dec-20 17:19 124 11 gusting 17 29.4
2014-Dec-20 17:04 118 7 gusting 15 29.4